createdAt,value
2023-12-11T00:02:18.070Z,8.21
2023-12-11T00:04:51.305Z,8.23
2023-12-11T00:07:22.929Z,8.26
2023-12-11T00:09:53.719Z,8.28
2023-12-11T00:12:26.646Z,8.31
2023-12-11T00:14:59.994Z,8.35
2023-12-11T00:17:33.196Z,8.39
2023-12-11T00:20:04.619Z,8.43
2023-12-11T00:22:35.233Z,8.48
2023-12-11T00:25:11.852Z,8.54
2023-12-11T00:27:42.787Z,8.59
2023-12-11T00:30:16.311Z,8.63
2023-12-11T00:32:47.307Z,8.67
2023-12-11T00:35:18.079Z,8.70
2023-12-11T00:37:48.585Z,8.72
2023-12-11T00:40:19.382Z,8.72
2023-12-11T00:42:50.151Z,8.70
2023-12-11T00:45:34.593Z,8.70
2023-12-11T00:48:05.737Z,8.71
2023-12-11T00:50:35.912Z,8.71
2023-12-11T00:53:06.391Z,8.70
2023-12-11T00:55:36.958Z,8.67
2023-12-11T00:58:07.757Z,8.63
2023-12-11T01:00:38.561Z,8.57
2023-12-11T01:03:10.027Z,8.53
2023-12-11T01:05:43.940Z,8.46
2023-12-11T01:08:14.566Z,8.40
2023-12-11T01:10:45.332Z,8.36
2023-12-11T01:13:36.118Z,8.31
2023-12-11T01:16:14.400Z,8.30
2023-12-11T01:18:45.618Z,8.31
2023-12-11T01:21:16.644Z,8.32
2023-12-11T01:23:47.362Z,8.30
2023-12-11T01:26:17.963Z,8.30
2023-12-11T01:28:48.588Z,8.30
2023-12-11T01:31:19.308Z,8.31
2023-12-11T01:33:50.068Z,8.34
2023-12-11T01:36:20.737Z,8.35
2023-12-11T01:38:51.468Z,8.36
2023-12-11T01:41:22.099Z,8.36
2023-12-11T01:43:58.529Z,8.41
2023-12-11T01:46:29.418Z,8.42
2023-12-11T01:49:10.641Z,8.42
2023-12-11T01:51:44.362Z,8.41
2023-12-11T01:54:15.638Z,8.43
2023-12-11T01:56:50.186Z,8.44
2023-12-11T01:59:21.106Z,8.46
2023-12-11T02:01:53.162Z,8.47
2023-12-11T02:04:24.289Z,8.51
2023-12-11T02:07:08.246Z,8.54
2023-12-11T02:09:42.001Z,8.57
2023-12-11T02:12:26.271Z,8.58
2023-12-11T02:14:56.937Z,8.60
2023-12-11T02:17:38.840Z,8.63
2023-12-11T02:20:13.961Z,8.67
2023-12-11T02:22:44.861Z,8.71
2023-12-11T02:25:15.610Z,8.74
2023-12-11T02:27:49.404Z,8.74
2023-12-11T02:30:23.253Z,8.74
2023-12-11T02:32:55.933Z,8.70
2023-12-11T02:35:28.911Z,8.67
2023-12-11T02:37:59.836Z,8.67
2023-12-11T02:40:33.476Z,8.66
2023-12-11T02:43:04.294Z,8.63
2023-12-11T02:45:46.928Z,8.59
2023-12-11T02:48:16.620Z,8.56
2023-12-11T02:50:49.404Z,8.52
2023-12-11T02:53:40.348Z,8.46
2023-12-11T02:56:12.229Z,8.40
2023-12-11T02:58:44.512Z,8.36
2023-12-11T03:01:16.718Z,8.32
2023-12-11T03:03:50.128Z,8.33
2023-12-11T03:06:23.841Z,8.40
2023-12-11T03:08:54.679Z,8.45
2023-12-11T03:11:25.429Z,8.51
2023-12-11T03:14:06.304Z,8.59
2023-12-11T03:16:37.189Z,8.68
2023-12-11T03:19:07.940Z,8.76
2023-12-11T03:21:41.289Z,8.83
2023-12-11T03:24:12.116Z,8.92
2023-12-11T03:26:42.732Z,9.02
2023-12-11T03:29:13.388Z,9.08
2023-12-11T03:31:44.102Z,9.16
2023-12-11T03:34:15.012Z,9.23
2023-12-11T03:36:48.078Z,9.28
2023-12-11T03:39:18.760Z,9.33
2023-12-11T03:41:50.470Z,9.36
2023-12-11T03:44:30.182Z,9.37
2023-12-11T03:47:00.763Z,9.38
2023-12-11T03:49:33.814Z,9.38
2023-12-11T03:52:04.667Z,9.34
2023-12-11T03:54:35.352Z,9.32
2023-12-11T03:57:08.963Z,9.29
2023-12-11T03:59:44.401Z,9.25
2023-12-11T04:02:15.423Z,9.20
2023-12-11T04:04:56.471Z,9.14
2023-12-11T04:07:30.004Z,9.10
2023-12-11T04:10:10.600Z,9.06
2023-12-11T04:12:45.924Z,9.05
2023-12-11T04:15:16.523Z,9.03
2023-12-11T04:18:07.550Z,9.07
2023-12-11T04:20:38.423Z,9.11
2023-12-11T04:23:11.574Z,9.14
2023-12-11T04:25:42.160Z,9.19
2023-12-11T04:28:12.913Z,9.23
2023-12-11T04:30:53.825Z,9.28
2023-12-11T04:33:24.885Z,9.31
2023-12-11T04:35:55.778Z,9.35
2023-12-11T04:38:46.876Z,9.38
2023-12-11T04:41:17.626Z,9.40
2023-12-11T04:43:48.335Z,9.44
2023-12-11T04:46:26.396Z,9.47
2023-12-11T04:48:57.182Z,9.48
2023-12-11T04:51:30.733Z,9.49
2023-12-11T04:54:11.529Z,9.50
2023-12-11T04:56:42.461Z,9.50
2023-12-11T04:59:13.136Z,9.51
2023-12-11T05:01:43.788Z,9.52
2023-12-11T05:04:14.617Z,9.52
2023-12-11T05:07:07.459Z,9.52
2023-12-11T05:09:38.179Z,9.52
2023-12-11T05:12:10.082Z,9.52
2023-12-11T05:14:40.883Z,9.51
2023-12-11T05:17:11.562Z,9.48
2023-12-11T05:19:42.406Z,9.46
2023-12-11T05:22:13.095Z,9.45
2023-12-11T05:24:43.885Z,9.44
2023-12-11T05:27:17.889Z,9.44
2023-12-11T05:29:48.549Z,9.47
2023-12-11T05:32:19.089Z,9.50
2023-12-11T05:34:49.826Z,9.51
2023-12-11T05:37:20.586Z,9.50
2023-12-11T05:39:58.004Z,9.49
2023-12-11T05:42:42.037Z,9.49
2023-12-11T05:45:32.953Z,9.47
2023-12-11T05:48:03.817Z,9.46
2023-12-11T05:50:35.056Z,9.46
2023-12-11T05:53:06.327Z,9.47
2023-12-11T05:55:37.754Z,9.48
2023-12-11T05:58:08.467Z,9.47
2023-12-11T06:00:49.338Z,9.44
2023-12-11T06:03:22.660Z,9.38
2023-12-11T06:05:59.059Z,9.32
2023-12-11T06:08:29.988Z,9.26
2023-12-11T06:11:11.801Z,9.20
2023-12-11T06:13:42.527Z,9.17
2023-12-11T06:16:23.291Z,9.17
2023-12-11T06:18:54.300Z,9.17
2023-12-11T06:21:26.630Z,9.19
2023-12-11T06:24:00.588Z,9.21
2023-12-11T06:26:32.980Z,9.23
2023-12-11T06:29:06.679Z,9.25
2023-12-11T06:31:48.564Z,9.27
2023-12-11T06:34:19.337Z,9.27
2023-12-11T06:36:50.377Z,9.26
2023-12-11T06:39:24.246Z,9.24
2023-12-11T06:41:55.340Z,9.22
2023-12-11T06:44:27.165Z,9.20
2023-12-11T06:47:09.447Z,9.17
2023-12-11T06:49:40.354Z,9.17
2023-12-11T06:52:11.860Z,9.20
2023-12-11T06:54:42.594Z,9.23
2023-12-11T06:57:13.313Z,9.27
2023-12-11T06:59:47.308Z,9.32
2023-12-11T07:02:21.185Z,9.39
2023-12-11T07:04:52.015Z,9.44
2023-12-11T07:07:26.396Z,9.49
2023-12-11T07:09:59.397Z,9.55
2023-12-11T07:12:31.533Z,9.58
2023-12-11T07:15:02.261Z,9.58
2023-12-11T07:17:36.220Z,9.58
2023-12-11T07:20:09.278Z,9.57
2023-12-11T07:22:39.917Z,9.57
2023-12-11T07:25:18.639Z,9.56
2023-12-11T07:27:49.569Z,9.54
2023-12-11T07:30:19.265Z,9.52
2023-12-11T07:32:50.181Z,9.51
2023-12-11T07:35:23.369Z,9.50
2023-12-11T07:37:54.067Z,9.49
2023-12-11T07:40:24.791Z,9.49
2023-12-11T07:42:55.396Z,9.49
2023-12-11T07:45:37.483Z,9.52
2023-12-11T07:48:08.661Z,9.54
2023-12-11T07:50:40.503Z,9.55
2023-12-11T07:53:11.166Z,9.56
2023-12-11T07:55:41.931Z,9.55
2023-12-11T07:58:14.892Z,9.55
2023-12-11T08:00:48.454Z,9.53
2023-12-11T08:03:19.160Z,9.53
2023-12-11T08:05:49.811Z,9.52
2023-12-11T08:08:21.233Z,9.52
2023-12-11T08:10:51.949Z,9.51
2023-12-11T08:13:22.825Z,9.51
2023-12-11T08:15:53.365Z,9.50
2023-12-11T08:18:24.258Z,9.51
2023-12-11T08:20:54.963Z,9.54
2023-12-11T08:23:25.528Z,9.60
2023-12-11T08:25:56.260Z,9.64
2023-12-11T08:28:29.378Z,9.68
2023-12-11T08:31:00.130Z,9.71
2023-12-11T08:33:30.720Z,9.73
2023-12-11T08:36:01.486Z,9.75
2023-12-11T08:38:32.269Z,9.77
2023-12-11T08:41:02.866Z,9.80
2023-12-11T08:43:33.615Z,9.82
2023-12-11T08:46:04.504Z,9.86
2023-12-11T08:48:35.665Z,9.97
2023-12-11T08:51:05.189Z,10.11
2023-12-11T08:53:35.809Z,10.25
2023-12-11T08:56:07.106Z,10.35
2023-12-11T08:58:38.292Z,10.43
2023-12-11T09:01:07.987Z,10.50
2023-12-11T09:03:38.994Z,10.56
2023-12-11T09:06:10.858Z,10.60
2023-12-11T09:08:41.763Z,10.62
2023-12-11T09:11:12.382Z,10.62
2023-12-11T09:13:42.914Z,10.61
2023-12-11T09:16:13.761Z,10.59
2023-12-11T09:18:44.473Z,10.59
2023-12-11T09:21:15.194Z,10.57
2023-12-11T09:23:46.641Z,10.54
2023-12-11T09:26:17.239Z,10.54
2023-12-11T09:28:51.797Z,10.53
2023-12-11T09:31:25.398Z,10.52
2023-12-11T09:34:03.999Z,10.51
2023-12-11T09:36:34.895Z,10.49
2023-12-11T09:39:05.760Z,10.48
2023-12-11T09:41:37.199Z,10.47
2023-12-11T09:44:08.671Z,10.45
2023-12-11T09:46:43.294Z,10.44
2023-12-11T09:49:14.160Z,10.44
2023-12-11T09:51:45.026Z,10.45
2023-12-11T09:54:16.256Z,10.46
2023-12-11T09:56:45.817Z,10.48
2023-12-11T09:59:17.160Z,10.47
2023-12-11T10:01:48.981Z,10.48
2023-12-11T10:04:19.939Z,10.51
2023-12-11T10:06:54.620Z,10.53
2023-12-11T10:09:34.360Z,10.55
2023-12-11T10:12:07.252Z,10.60
2023-12-11T10:14:38.342Z,10.64
2023-12-11T10:17:22.183Z,10.66
2023-12-11T10:19:53.219Z,10.68
2023-12-11T10:22:31.511Z,10.68
2023-12-11T10:25:02.496Z,10.69
2023-12-11T10:27:33.068Z,10.68
2023-12-11T10:30:15.729Z,10.69
2023-12-11T10:32:46.412Z,10.70
2023-12-11T10:35:27.365Z,10.72
2023-12-11T10:38:04.162Z,10.76
2023-12-11T10:40:42.914Z,10.80
2023-12-11T10:43:13.660Z,10.89
2023-12-11T10:45:45.163Z,10.96
2023-12-11T10:48:17.018Z,11.04
2023-12-11T10:50:47.873Z,11.14
2023-12-11T10:53:19.881Z,11.22
2023-12-11T10:55:54.346Z,11.26
2023-12-11T10:58:26.991Z,11.32
2023-12-11T11:01:00.970Z,11.36
2023-12-11T11:03:33.168Z,11.38
2023-12-11T11:06:03.874Z,11.42
2023-12-11T11:08:39.476Z,11.45
2023-12-11T11:11:17.070Z,11.46
2023-12-11T11:14:13.325Z,11.47
2023-12-11T11:17:00.883Z,11.47
2023-12-11T11:19:31.650Z,11.49
2023-12-11T11:22:31.381Z,11.53
2023-12-11T11:25:38.166Z,11.60
2023-12-11T11:28:32.177Z,11.63
2023-12-11T11:31:03.164Z,11.63
2023-12-11T11:33:48.926Z,11.63
2023-12-11T11:36:22.177Z,11.67
2023-12-11T11:38:59.208Z,11.69
2023-12-11T11:41:31.259Z,11.69
2023-12-11T11:44:06.695Z,11.67
2023-12-11T11:46:57.120Z,11.66
2023-12-11T11:49:39.199Z,11.66
2023-12-11T11:52:12.199Z,11.65
2023-12-11T11:54:43.690Z,11.64
2023-12-11T11:57:14.996Z,11.62
2023-12-11T11:59:48.659Z,11.63
2023-12-11T12:02:25.960Z,11.65
2023-12-11T12:04:56.810Z,11.68
2023-12-11T12:07:28.359Z,11.67
2023-12-11T12:10:02.589Z,11.67
2023-12-11T12:12:33.307Z,11.68
2023-12-11T12:15:05.656Z,11.69
2023-12-11T12:17:47.600Z,11.69
2023-12-11T12:20:19.357Z,11.68
2023-12-11T12:23:02.609Z,11.69
2023-12-11T12:25:34.793Z,11.68
2023-12-11T12:28:08.416Z,11.68
2023-12-11T12:30:40.103Z,11.68
2023-12-11T12:33:13.685Z,11.68
2023-12-11T12:35:46.334Z,11.67
2023-12-11T12:38:17.938Z,11.65
2023-12-11T12:40:49.824Z,11.64
2023-12-11T12:43:20.741Z,11.63
2023-12-11T12:45:51.457Z,11.63
2023-12-11T12:48:31.707Z,11.65
2023-12-11T12:51:10.319Z,11.66
2023-12-11T12:53:49.791Z,11.67
2023-12-11T12:56:21.574Z,11.69
2023-12-11T12:58:55.153Z,11.71
2023-12-11T13:01:25.754Z,11.72
2023-12-11T13:04:02.637Z,11.75
2023-12-11T13:06:33.123Z,11.78
2023-12-11T13:09:04.134Z,11.80
2023-12-11T13:11:46.643Z,11.82
2023-12-11T13:14:20.009Z,11.82
2023-12-11T13:16:51.020Z,11.84
2023-12-11T13:19:22.042Z,11.85
2023-12-11T13:21:52.779Z,11.84
2023-12-11T13:24:23.706Z,11.84
2023-12-11T13:26:54.385Z,11.84
2023-12-11T13:29:24.750Z,11.83
2023-12-11T13:31:57.708Z,11.80
2023-12-11T13:34:28.736Z,11.78
2023-12-11T13:36:59.943Z,11.76
2023-12-11T13:39:30.770Z,11.76
2023-12-11T13:42:01.250Z,11.76
2023-12-11T13:44:35.402Z,11.76
2023-12-11T13:47:06.424Z,11.76
2023-12-11T13:49:35.745Z,11.76
2023-12-11T13:52:06.873Z,11.76
2023-12-11T13:54:39.817Z,11.76
2023-12-11T13:57:10.299Z,11.74
2023-12-11T13:59:41.389Z,11.73
2023-12-11T14:02:12.216Z,11.71
2023-12-11T14:04:43.348Z,11.69
2023-12-11T14:07:14.056Z,11.67
2023-12-11T14:09:44.811Z,11.65
2023-12-11T14:12:17.069Z,11.62
2023-12-11T14:14:47.829Z,11.58
2023-12-11T14:17:18.341Z,11.56
2023-12-11T14:19:52.053Z,11.53
2023-12-11T14:22:22.758Z,11.49
2023-12-11T14:24:53.858Z,11.47
2023-12-11T14:27:25.136Z,11.45
2023-12-11T14:29:56.034Z,11.44
2023-12-11T14:32:26.499Z,11.42
2023-12-11T14:34:57.003Z,11.40
2023-12-11T14:37:27.849Z,11.40
2023-12-11T14:39:58.478Z,11.40
2023-12-11T14:42:29.469Z,11.41
2023-12-11T14:44:59.902Z,11.40
2023-12-11T14:47:30.818Z,11.40
2023-12-11T14:50:11.903Z,11.39
2023-12-11T14:52:43.062Z,11.37
2023-12-11T14:55:24.298Z,11.35
2023-12-11T14:57:55.983Z,11.34
2023-12-11T15:00:26.483Z,11.32
2023-12-11T15:02:56.990Z,11.30
2023-12-11T15:05:27.577Z,11.30
2023-12-11T15:07:58.053Z,11.30
2023-12-11T15:10:28.609Z,11.29
2023-12-11T15:12:59.084Z,11.28
2023-12-11T15:15:29.988Z,11.24
2023-12-11T15:18:03.671Z,11.21
2023-12-11T15:20:34.197Z,11.20
2023-12-11T15:23:06.617Z,11.21
2023-12-11T15:25:37.240Z,11.22
2023-12-11T15:28:07.722Z,11.25
2023-12-11T15:30:38.159Z,11.25
2023-12-11T15:33:09.687Z,11.24
2023-12-11T15:35:41.418Z,11.23
2023-12-11T15:38:11.879Z,11.21
2023-12-11T15:40:42.281Z,11.18
2023-12-11T15:43:12.780Z,11.16
2023-12-11T15:45:44.056Z,11.15
2023-12-11T15:48:36.681Z,11.14
2023-12-11T15:51:18.682Z,11.13
2023-12-11T15:53:49.471Z,11.14
2023-12-11T15:56:20.074Z,11.14
2023-12-11T15:58:50.912Z,11.13
2023-12-11T16:01:21.551Z,11.11
2023-12-11T16:03:52.699Z,11.09
2023-12-11T16:06:23.556Z,11.06
2023-12-11T16:08:54.543Z,11.03
2023-12-11T16:11:31.742Z,11.01
2023-12-11T16:14:02.717Z,10.98
2023-12-11T16:16:35.654Z,10.95
2023-12-11T16:19:06.280Z,10.94
2023-12-11T16:21:41.110Z,10.93
2023-12-11T16:24:11.738Z,10.93
2023-12-11T16:26:42.508Z,10.90
2023-12-11T16:29:13.255Z,10.88
2023-12-11T16:31:44.372Z,10.86
2023-12-11T16:34:13.730Z,10.85
2023-12-11T16:36:44.586Z,10.82
2023-12-11T16:39:20.868Z,10.78
2023-12-11T16:41:51.797Z,10.75
2023-12-11T16:44:29.697Z,10.72
2023-12-11T16:47:00.710Z,10.71
2023-12-11T16:49:32.624Z,10.71
2023-12-11T16:52:04.920Z,10.70
2023-12-11T16:54:35.346Z,10.69
2023-12-11T16:57:06.360Z,10.67
2023-12-11T16:59:36.995Z,10.67
2023-12-11T17:02:08.118Z,10.66
2023-12-11T17:04:38.862Z,10.64
2023-12-11T17:07:09.633Z,10.62
2023-12-11T17:09:43.287Z,10.62
2023-12-11T17:12:14.281Z,10.61
2023-12-11T17:14:45.749Z,10.59
2023-12-11T17:17:16.093Z,10.56
2023-12-11T17:19:46.576Z,10.53
2023-12-11T17:22:17.311Z,10.48
2023-12-11T17:24:47.880Z,10.42
2023-12-11T17:27:18.331Z,10.39
2023-12-11T17:29:48.936Z,10.37
2023-12-11T17:32:19.392Z,10.34
2023-12-11T17:34:50.837Z,10.32
2023-12-11T17:37:23.419Z,10.29
2023-12-11T17:39:56.680Z,10.26
2023-12-11T17:42:28.180Z,10.22
2023-12-11T17:44:57.300Z,10.20
2023-12-11T17:47:27.908Z,10.18
2023-12-11T17:49:59.070Z,10.15
2023-12-11T17:52:29.888Z,10.13
2023-12-11T17:55:12.260Z,10.11
2023-12-11T17:57:42.814Z,10.11
2023-12-11T18:00:15.682Z,10.12
2023-12-11T18:02:46.078Z,10.12
2023-12-11T18:05:36.914Z,10.12
2023-12-11T18:08:07.893Z,10.11
2023-12-11T18:10:38.710Z,10.11
2023-12-11T18:13:09.105Z,10.10
2023-12-11T18:15:39.742Z,10.13
2023-12-11T18:18:10.480Z,10.15
2023-12-11T18:20:41.118Z,10.17
2023-12-11T18:23:13.715Z,10.18
2023-12-11T18:25:52.653Z,10.16
2023-12-11T18:28:23.329Z,10.16
2023-12-11T18:30:53.945Z,10.14
2023-12-11T18:33:24.929Z,10.12
2023-12-11T18:35:55.568Z,10.09
2023-12-11T18:38:26.279Z,10.05
2023-12-11T18:40:59.740Z,10.01
2023-12-11T18:43:30.922Z,9.98
2023-12-11T18:45:59.950Z,9.94
2023-12-11T18:48:30.430Z,9.91
2023-12-11T18:51:00.970Z,9.88
2023-12-11T18:53:31.434Z,9.86
2023-12-11T18:56:02.374Z,9.83
2023-12-11T18:58:32.952Z,9.81
2023-12-11T19:01:25.561Z,9.78
2023-12-11T19:03:56.430Z,9.76
2023-12-11T19:06:37.263Z,9.75
2023-12-11T19:09:08.672Z,9.74
2023-12-11T19:11:39.392Z,9.73
2023-12-11T19:14:09.881Z,9.73
2023-12-11T19:16:40.378Z,9.73
2023-12-11T19:19:11.035Z,9.74
2023-12-11T19:21:41.713Z,9.75
2023-12-11T19:24:13.326Z,9.76
2023-12-11T19:26:43.902Z,9.75
2023-12-11T19:29:15.724Z,9.74
2023-12-11T19:31:46.344Z,9.73
2023-12-11T19:34:18.170Z,9.72
2023-12-11T19:36:48.933Z,9.71
2023-12-11T19:39:19.633Z,9.70
2023-12-11T19:41:50.172Z,9.68
2023-12-11T19:44:20.684Z,9.67
2023-12-11T19:46:52.497Z,9.66
2023-12-11T19:49:24.100Z,9.65
2023-12-11T19:52:05.652Z,9.63
2023-12-11T19:54:34.801Z,9.62
2023-12-11T19:57:05.290Z,9.61
2023-12-11T19:59:38.767Z,9.60
2023-12-11T20:02:09.848Z,9.57
2023-12-11T20:04:40.793Z,9.55
2023-12-11T20:07:32.469Z,9.51
2023-12-11T20:10:03.478Z,9.50
2023-12-11T20:12:37.026Z,9.49
2023-12-11T20:15:12.661Z,9.48
2023-12-11T20:17:43.209Z,9.48
2023-12-11T20:20:14.499Z,9.50
2023-12-11T20:22:45.326Z,9.51
2023-12-11T20:25:16.488Z,9.51
2023-12-11T20:27:47.071Z,9.51
2023-12-11T20:30:18.352Z,9.51
2023-12-11T20:32:47.382Z,9.48
2023-12-11T20:35:17.880Z,9.47
2023-12-11T20:37:48.371Z,9.45
2023-12-11T20:40:18.971Z,9.45
2023-12-11T20:42:49.418Z,9.43
2023-12-11T20:45:23.991Z,9.41
2023-12-11T20:47:54.441Z,9.38
2023-12-11T20:50:24.794Z,9.35
2023-12-11T20:52:55.313Z,9.30
2023-12-11T20:55:25.840Z,9.27
2023-12-11T20:57:56.241Z,9.23
2023-12-11T21:00:26.748Z,9.18
2023-12-11T21:02:58.758Z,9.13
2023-12-11T21:05:30.656Z,9.08
2023-12-11T21:08:01.357Z,9.03
2023-12-11T21:10:31.848Z,8.97
2023-12-11T21:13:02.300Z,8.92
2023-12-11T21:15:39.709Z,8.88
2023-12-11T21:18:20.882Z,8.84
2023-12-11T21:20:51.511Z,8.81
2023-12-11T21:23:21.984Z,8.78
2023-12-11T21:25:54.238Z,8.77
2023-12-11T21:28:29.508Z,8.76
2023-12-11T21:31:19.776Z,8.76
2023-12-11T21:34:10.544Z,8.75
2023-12-11T21:36:41.615Z,8.74
2023-12-11T21:39:12.097Z,8.74
2023-12-11T21:41:50.366Z,8.73
2023-12-11T21:44:23.474Z,8.74
2023-12-11T21:46:55.713Z,8.73
2023-12-11T21:49:26.262Z,8.73
2023-12-11T21:51:59.045Z,8.74
2023-12-11T21:54:29.700Z,8.74
2023-12-11T21:57:00.767Z,8.75
2023-12-11T21:59:39.261Z,8.75
2023-12-11T22:02:13.842Z,8.76
2023-12-11T22:04:44.257Z,8.78
2023-12-11T22:07:17.417Z,8.79
2023-12-11T22:09:49.001Z,8.81
2023-12-11T22:12:19.482Z,8.82
2023-12-11T22:14:49.905Z,8.83
2023-12-11T22:17:21.505Z,8.83
2023-12-11T22:19:54.422Z,8.84
2023-12-11T22:22:27.547Z,8.84
2023-12-11T22:25:00.296Z,8.85
2023-12-11T22:27:33.146Z,8.86
2023-12-11T22:30:10.315Z,8.87
2023-12-11T22:32:45.081Z,8.87
2023-12-11T22:35:16.629Z,8.87
2023-12-11T22:37:47.236Z,8.87
2023-12-11T22:40:18.245Z,8.87
2023-12-11T22:42:51.234Z,8.85
2023-12-11T22:45:24.105Z,8.83
2023-12-11T22:47:54.586Z,8.80
2023-12-11T22:50:26.563Z,8.78
2023-12-11T22:52:58.308Z,8.75
2023-12-11T22:55:28.823Z,8.72
2023-12-11T22:58:09.222Z,8.70
2023-12-11T23:00:44.726Z,8.66
2023-12-11T23:03:19.511Z,8.63
2023-12-11T23:05:50.690Z,8.60
2023-12-11T23:08:24.008Z,8.58
2023-12-11T23:10:54.439Z,8.56
2023-12-11T23:13:24.830Z,8.54
2023-12-11T23:15:55.221Z,8.53
2023-12-11T23:18:25.654Z,8.51
2023-12-11T23:20:56.256Z,8.50
2023-12-11T23:23:26.651Z,8.48
2023-12-11T23:26:04.341Z,8.46
2023-12-11T23:28:36.471Z,8.45
2023-12-11T23:31:07.581Z,8.44
2023-12-11T23:33:39.542Z,8.45
2023-12-11T23:36:12.108Z,8.47
2023-12-11T23:38:42.937Z,8.50
2023-12-11T23:41:15.205Z,8.53
2023-12-11T23:43:48.920Z,8.56
2023-12-11T23:46:19.638Z,8.58
2023-12-11T23:48:53.263Z,8.61
2023-12-11T23:51:26.718Z,8.63
2023-12-11T23:54:07.799Z,8.65
2023-12-11T23:56:38.312Z,8.66
2023-12-11T23:59:11.238Z,8.67
